Flight Track Log - Related Links

Times and Time Zones

All times are in EDT time to prevent confusion due to time zone crossing. See the THY1657 flight status page for this flight to view local times or setup timezone preferences in your user account.

Time Position Orientation Groundspeed Altitude Reporting Facility
EDT Latitude Longitude Course Direction KTS MPH feet Rate Location/Type
Thu 08:51:00 PM 39.2480 32.9463 322° Northwest  Level Estimated
Thu 08:52:00 PM 39.3342 32.8536 320° Northwest  Level Estimated
Thu 08:53:00 PM 39.4203 32.7607 320° Northwest  Level Estimated
Thu 08:54:00 PM 39.5064 32.6675 320° Northwest  Level Estimated
Thu 08:55:00 PM 39.5923 32.5740 320° Northwest  Level Estimated
Thu 08:56:00 PM 39.6782 32.4804 320° Northwest  Level Estimated
Thu 08:57:00 PM 39.7641 32.3865 320° Northwest  Level Estimated
Thu 08:58:00 PM 39.8498 32.2924 320° Northwest  Level Estimated
Thu 08:59:00 PM 39.9355 32.1980 320° Northwest  Level Estimated
Thu 09:00:00 PM 40.0211 32.1035 320° Northwest  Level Estimated
Thu 09:01:00 PM 40.1066 32.0086 320° Northwest  Level Estimated
Thu 09:02:00 PM 40.1921 31.9135 320° Northwest  Level Estimated
Thu 09:03:00 PM 40.2774 31.8182 320° Northwest  Level Estimated
Thu 09:04:00 PM 40.3627 31.7227 320° Northwest  Level Estimated
Thu 09:05:00 PM 40.4479 31.6269 319° Northwest  Level Estimated
Thu 09:06:00 PM 40.5331 31.5309 319° Northwest  Level Estimated
Thu 09:07:00 PM 40.6181 31.4346 319° Northwest  Level Estimated
Thu 09:08:00 PM 40.7031 31.3381 319° Northwest  Level Estimated
Thu 09:09:00 PM 40.7880 31.2413 319° Northwest  Level Estimated
Thu 09:10:00 PM 40.8728 31.1443 319° Northwest  Level Estimated
Thu 09:11:00 PM 40.9575 31.0470 319° Northwest  Level Estimated
Thu 09:12:00 PM 41.0421 30.9495 319° Northwest  Level Estimated
Thu 09:13:00 PM 41.1267 30.8517 319° Northwest  Level Estimated
Thu 09:14:00 PM 41.2112 30.7537 319° Northwest  Level Estimated
Thu 09:15:00 PM 41.2956 30.6555 319° Northwest  Level Estimated
Thu 09:16:00 PM 41.3799 30.5569 319° Northwest  Level Estimated
Thu 09:17:00 PM 41.4641 30.4581 319° Northwest  Level Estimated
Thu 09:18:00 PM 41.5483 30.3591 319° Northwest  Level Estimated
Thu 09:19:00 PM 41.6323 30.2598 319° Northwest  Level Estimated
Thu 09:20:00 PM 41.7163 30.1602 319° Northwest  Level Estimated
Thu 09:21:00 PM 41.8002 30.0604 318° Northwest  Level Estimated
Thu 09:22:00 PM 41.8840 29.9604 318° Northwest  Level Estimated
Thu 09:23:00 PM 41.9677 29.8600 318° Northwest  Level Estimated
Thu 09:24:00 PM 42.0513 29.7594 318° Northwest  Level Estimated
Thu 09:25:00 PM 42.1348 29.6586 318° Northwest  Level Estimated
Thu 09:26:00 PM 42.2183 29.5574 318° Northwest  Level Estimated
Thu 09:27:00 PM 42.3017 29.4560 318° Northwest  Level Estimated
Thu 09:28:00 PM 42.3849 29.3543 318° Northwest  Level Estimated
Thu 09:29:00 PM 42.4681 29.2524 318° Northwest  Level Estimated
Thu 09:30:00 PM 42.5512 29.1502 318° Northwest  Level Estimated
Thu 09:31:00 PM 42.6342 29.0477 318° Northwest  Level Estimated
Thu 09:32:00 PM 42.7171 28.9450 318° Northwest  Level Estimated
Thu 09:33:00 PM 42.7999 28.8419 318° Northwest  Level Estimated
Thu 09:34:00 PM 42.8826 28.7386 318° Northwest  Level Estimated
Thu 09:35:00 PM 42.9653 28.6350 317° Northwest  Level Estimated
Thu 09:36:00 PM 43.0478 28.5312 317° Northwest  Level Estimated
Thu 09:37:00 PM 43.1302 28.4270 317° Northwest  Level Estimated
Thu 09:38:00 PM 43.2126 28.3226 317° Northwest  Level Estimated
Thu 09:39:00 PM 43.2948 28.2179 317° Northwest  Level Estimated
Thu 09:40:00 PM 43.3770 28.1129 317° Northwest  Level Estimated
Thu 09:41:00 PM 43.4590 28.0076 317° Northwest  Level Estimated
Thu 09:42:00 PM 43.5410 27.9021 317° Northwest  Level Estimated
Thu 09:43:00 PM 43.6229 27.7962 317° Northwest  Level Estimated
Thu 09:44:00 PM 43.7046 27.6901 317° Northwest  Level Estimated
Thu 09:45:00 PM 43.7863 27.5836 317° Northwest  Level Estimated
Thu 09:46:00 PM 43.8679 27.4769 317° Northwest  Level Estimated
Thu 09:47:00 PM 43.9493 27.3699 317° Northwest  Level Estimated
Thu 09:48:00 PM 44.0307 27.2626 317° Northwest  Level Estimated
Thu 09:49:00 PM 44.1120 27.1550 316° Northwest  Level Estimated
Thu 09:50:00 PM 44.1932 27.0471 316° Northwest  Level Estimated
Thu 09:51:00 PM 44.2742 26.9389 316° Northwest  Level Estimated
Thu 09:52:00 PM 44.3552 26.8304 316° Northwest  Level Estimated
Thu 09:53:00 PM 44.4361 26.7216 316° Northwest  Level Estimated
Thu 09:54:00 PM 44.5168 26.6126 316° Northwest  Level Estimated
Thu 09:55:00 PM 44.5975 26.5032 316° Northwest  Level Estimated
Thu 09:56:00 PM 44.6780 26.3935 316° Northwest  Level Estimated
Thu 09:57:00 PM 44.7584 26.2835 316° Northwest  Level Estimated
Thu 09:58:00 PM 44.8388 26.1732 316° Northwest  Level Estimated
Thu 09:59:00 PM 44.9190 26.0625 316° Northwest  Level Estimated
Thu 10:00:00 PM 44.9991 25.9516 316° Northwest  Level Estimated
Thu 10:01:00 PM 45.0792 25.8404 316° Northwest  Level Estimated
Thu 10:02:00 PM 45.1591 25.7288 315° West  Level Estimated
Thu 10:03:00 PM 45.2389 25.6170 315° West  Level Estimated
Thu 10:04:00 PM 45.3186 25.5048 315° West  Level Estimated
Thu 10:05:00 PM 45.3981 25.3923 315° West  Level Estimated
Thu 10:06:00 PM 45.4776 25.2795 315° West  Level Estimated
Thu 10:07:00 PM 45.5570 25.1663 315° West  Level Estimated
Thu 10:08:00 PM 45.6362 25.0529 315° West  Level Estimated
Thu 10:09:00 PM 45.7153 24.9391 315° West  Level Estimated
Thu 10:10:00 PM 45.7944 24.8250 315° West  Level Estimated
Thu 10:11:00 PM 45.8733 24.7106 315° West  Level Estimated
Thu 10:12:00 PM 45.9520 24.5959 315° West  Level Estimated
Thu 10:13:00 PM 46.0307 24.4808 315° West  Level Estimated
Thu 10:14:00 PM 46.1093 24.3654 314° West  Level Estimated
Thu 10:15:00 PM 46.1877 24.2497 314° West  Level Estimated
Thu 10:16:00 PM 46.2660 24.1336 314° West  Level Estimated
Thu 10:17:00 PM 46.3443 24.0173 314° West  Level Estimated
Thu 10:18:00 PM 46.4224 23.9005 314° West  Level Estimated
Thu 10:19:00 PM 46.5003 23.7835 314° West  Level Estimated
Thu 10:20:00 PM 46.5782 23.6661 314° West  Level Estimated
Thu 10:21:00 PM 46.6559 23.5484 314° West  Level Estimated
Thu 10:22:00 PM 46.7335 23.4303 314° West  Level Estimated
Thu 10:23:00 PM 46.8110 23.3119 314° West  Level Estimated
Thu 10:24:00 PM 46.8884 23.1931 314° West  Level Estimated
Thu 10:25:00 PM 46.9656 23.0741 314° West  Level Estimated
Thu 10:26:00 PM 47.0427 22.9546 313° West  Level Estimated
Thu 10:27:00 PM 47.1197 22.8348 313° West  Level Estimated
Thu 10:28:00 PM 47.1966 22.7147 313° West  Level Estimated
Thu 10:29:00 PM 47.2733 22.5942 313° West  Level Estimated
Thu 10:30:00 PM 47.3499 22.4734 313° West  Level Estimated
Thu 10:31:00 PM 47.4264 22.3522 313° West  Level Estimated
Thu 10:32:00 PM 47.5028 22.2307 313° West  Level Estimated
Thu 10:33:00 PM 47.5790 22.1088 313° West  Level Estimated
Thu 10:34:00 PM 47.6551 21.9866 313° West  Level Estimated
Thu 10:35:00 PM 47.7311 21.8640 313° West  Level Estimated
Thu 10:36:00 PM 47.8069 21.7410 313° West  Level Estimated
Thu 10:37:00 PM 47.8826 21.6177 312° West  Level Estimated
Thu 10:38:00 PM 47.9582 21.4941 312° West  Level Estimated
Thu 10:39:00 PM 48.0337 21.3700 312° West  Level Estimated
Thu 10:40:00 PM 48.1090 21.2456 312° West  Level Estimated
Thu 10:41:00 PM 48.1842 21.1209 312° West  Level Estimated
Thu 10:42:00 PM 48.2592 20.9957 312° West  Level Estimated
Thu 10:43:00 PM 48.3341 20.8702 312° West  Level Estimated
Thu 10:44:00 PM 48.4089 20.7444 312° West  Level Estimated
Thu 10:45:00 PM 48.4835 20.6182 312° West  Level Estimated
Thu 10:46:00 PM 48.5580 20.4915 312° West  Level Estimated
Thu 10:47:00 PM 48.6323 20.3646 312° West  Level Estimated
Thu 10:48:00 PM 48.7065 20.2372 311° West  Level Estimated
Thu 10:49:00 PM 48.7806 20.1095 311° West  Level Estimated
Thu 10:50:00 PM 48.8545 19.9814 311° West  Level Estimated
Thu 10:51:00 PM 48.9283 19.8529 311° West  Level Estimated
Thu 10:52:00 PM 49.0020 19.7240 311° West  Level Estimated
Thu 10:53:00 PM 49.0755 19.5948 311° West  Level Estimated
Thu 10:54:00 PM 49.1488 19.4651 311° West  Level Estimated
Thu 10:55:00 PM 49.2220 19.3351 311° West  Level Estimated
Thu 10:56:00 PM 49.2951 19.2047 311° West  Level Estimated
Thu 10:57:00 PM 49.3680 19.0739 311° West  Level Estimated
Thu 10:58:00 PM 49.4408 18.9428 310° West  Level Estimated
Thu 10:59:00 PM 49.5134 18.8112 310° West  Level Estimated
Thu 11:00:00 PM 49.5859 18.6793 310° West  Level Estimated
Thu 11:01:00 PM 49.6582 18.5469 310° West  Level Estimated
Thu 11:02:00 PM 49.7304 18.4142 310° West  Level Estimated
Thu 11:03:00 PM 49.8024 18.2810 310° West  Level Estimated
Thu 11:04:00 PM 49.8742 18.1475 310° West  Level Estimated
Thu 11:05:00 PM 49.9459 18.0136 310° West  Level Estimated
Thu 11:06:00 PM 50.0175 17.8792 310° West  Level Estimated
Thu 11:07:00 PM 50.0889 17.7445 310° West  Level Estimated
Thu 11:08:00 PM 50.1601 17.6094 309° West  Level Estimated
Thu 11:09:00 PM 50.2312 17.4739 309° West  Level Estimated
Thu 11:10:00 PM 50.3022 17.3379 309° West  Level Estimated
Thu 11:11:00 PM 50.3729 17.2016 309° West  Level Estimated
Thu 11:12:00 PM 50.4435 17.0648 309° West  Level Estimated
Thu 11:13:00 PM 50.5140 16.9277 309° West  Level Estimated
Thu 11:14:00 PM 50.5843 16.7901 309° West  Level Estimated
Thu 11:15:00 PM 50.6544 16.6521 309° West  Level Estimated
Thu 11:16:00 PM 50.7243 16.5137 309° West  Level Estimated
Thu 11:17:00 PM 50.7942 16.3749 309° West  Level Estimated
Thu 11:18:00 PM 50.8638 16.2357 308° West  Level Estimated
Thu 11:19:00 PM 50.9332 16.0961 308° West  Level Estimated
Thu 11:20:00 PM 51.0025 15.9560 308° West  Level Estimated
Thu 11:21:00 PM 51.0717 15.8155 308° West  Level Estimated
Thu 11:22:00 PM 51.1406 15.6747 308° West  Level Estimated
Thu 11:23:00 PM 51.2094 15.5333 308° West  Level Estimated
Thu 11:24:00 PM 51.2780 15.3916 308° West  Level Estimated
Thu 11:25:00 PM 51.3465 15.2495 308° West  Level Estimated
Thu 11:26:00 PM 51.4148 15.1069 308° West  Level Estimated
Thu 11:27:00 PM 51.4829 14.9639 307° West  Level Estimated
Thu 11:28:00 PM 51.5508 14.8204 307° West  Level Estimated
Thu 11:29:00 PM 51.6185 14.6766 307° West  Level Estimated
Thu 11:30:00 PM 51.6861 14.5323 307° West  Level Estimated
Thu 11:31:00 PM 51.7535 14.3876 307° West  Level Estimated
Thu 11:32:00 PM 51.8208 14.2424 307° West  Level Estimated
Thu 11:33:00 PM 51.8878 14.0968 307° West  Level Estimated
Thu 11:34:00 PM 51.9547 13.9508 307° West  Level Estimated
Thu 11:35:00 PM 52.0213 13.8043 307° West  Level Estimated
Thu 11:36:00 PM 52.0878 13.6574 306° West  Level Estimated
Thu 11:37:00 PM 52.1541 13.5101 306° West  Level Estimated
Thu 11:38:00 PM 52.2203 13.3624 306° West  Level Estimated
Thu 11:39:00 PM 52.2862 13.2141 306° West  Level Estimated
Thu 11:40:00 PM 52.3520 13.0655 306° West  Level Estimated
Thu 11:41:00 PM 52.4175 12.9164 306° West  Level Estimated
Thu 11:42:00 PM 52.4829 12.7669 306° West  Level Estimated
Thu 11:43:00 PM 52.5481 12.6169 306° West  Level Estimated
Thu 11:44:00 PM 52.6131 12.4664 305° West  Level Estimated
Thu 11:45:00 PM 52.6779 12.3156 305° West  Level Estimated
Thu 11:46:00 PM 52.7425 12.1642 305° West  Level Estimated
Thu 11:47:00 PM 52.8070 12.0125 305° West  Level Estimated
Thu 11:48:00 PM 52.8712 11.8603 305° West  Level Estimated
Thu 11:49:00 PM 52.9352 11.7076 305° West  Level Estimated
Thu 11:50:00 PM 52.9991 11.5545 305° West  Level Estimated
Thu 11:51:00 PM 53.0627 11.4009 305° West  Level Estimated
Thu 11:52:00 PM 53.1262 11.2469 305° West  Level Estimated
Thu 11:53:00 PM 53.1894 11.0924 304° West  Level Estimated
Thu 11:54:00 PM 53.2525 10.9374 304° West  Level Estimated
Thu 11:55:00 PM 53.3153 10.7820 304° West  Level Estimated
Thu 11:56:00 PM 53.3780 10.6262 304° West  Level Estimated
Thu 11:57:00 PM 53.4404 10.4699 304° West  Level Estimated
Thu 11:58:00 PM 53.5027 10.3131 304° West  Level Estimated
Thu 11:59:00 PM 53.5647 10.1559 304° West  Level Estimated
Fri 12:00:00 AM 53.6265 9.9981 304° West  Level Estimated
Fri 12:01:00 AM 53.6304 9.9882 303° West  Level Estimated
Fri 12:02:00 AM 53.6304 9.9882 230° Southwest  Level Estimated
Fri 12:03:00 AM 53.6304 9.9882 230° Southwest  Level Estimated
Fri 12:04:00 AM 53.6304 9.9882 230° Southwest  Level Estimated
Fri 12:05:00 AM 53.6304 9.9882 230° Southwest  Level Estimated
Fri 12:06:00 AM 53.6304 9.9882 230° Southwest  Level Estimated
Fri 12:07:00 AM 53.6304 9.9882 230° Southwest  Level Estimated
Fri 12:08:00 AM 53.6304 9.9882 230° Southwest  Level Estimated
Fri 12:09:00 AM 53.6304 9.9882 230° Southwest  Level Estimated
Fri 12:10:00 AM 53.6304 9.9882 230° Southwest  Level Estimated
Fri 12:11:00 AM 53.6304 9.9882 230° Southwest  Level Estimated
Fri 12:12:00 AM 53.6304 9.9882 230° Southwest  Level Estimated
Fri 12:13:00 AM 53.6304 9.9882 230° Southwest  Level Estimated
Fri 12:14:00 AM 53.6304 9.9882 230° Southwest  Level Estimated
Fri 12:15:00 AM 53.6304 9.9882 230° Southwest  Level Estimated
Fri 12:16:00 AM 53.6304 9.9882 230° Southwest  Level Estimated

Login

Don't have an account? Register now (free) for customized features, flight alerts, and more!